Time,TemperatureF,DewpointF,PressureIn,WindDirection,WindDirectionDegrees,WindSpeedMPH,WindSpeedGustMPH,Humidity,HourlyPrecipIn,Conditions,Clouds,dailyrainin,SolarRadiationWatts/m^2,SoftwareType,DateUTC
2013-06-23 00:02:00,71.0,37.0,-100.00,East,84,4.0,9.0,29,0.00,,,0.00,0.000000,,2013-06-23 07:02:00,
2013-06-23 00:12:00,71.0,37.0,-100.00,East,84,4.0,9.0,29,0.00,,,0.00,0.000000,,2013-06-23 07:12:00,
2013-06-23 00:43:00,71.0,40.0,-100.00,ENE,70,5.0,7.0,32,0.00,,,0.00,0.000000,,2013-06-23 07:43:00,
2013-06-23 00:53:00,71.0,40.0,-100.00,ENE,70,5.0,7.0,32,0.00,,,0.00,0.000000,,2013-06-23 07:53:00,
2013-06-23 01:02:00,71.0,40.0,-100.00,ENE,70,5.0,7.0,32,0.00,,,0.00,0.000000,,2013-06-23 08:02:00,
2013-06-23 01:11:00,71.0,40.0,-100.00,ENE,70,5.0,7.0,32,0.00,,,0.00,0.000000,,2013-06-23 08:11:00,
2013-06-23 01:43:00,68.0,41.0,-100.00,NE,42,3.0,7.0,37,0.00,,,-99.99,0.000000,,2013-06-23 08:43:00,
2013-06-23 01:53:00,68.0,41.0,-100.00,NE,42,3.0,7.0,37,0.00,,,-99.99,0.000000,,2013-06-23 08:53:00,
2013-06-23 02:02:00,68.0,41.0,-100.00,NE,42,3.0,7.0,37,0.00,,,-99.99,0.000000,,2013-06-23 09:02:00,
2013-06-23 02:12:00,68.0,41.0,-100.00,NE,42,3.0,7.0,37,0.00,,,-99.99,0.000000,,2013-06-23 09:12:00,
2013-06-23 02:43:00,68.0,41.0,-100.00,ENE,68,5.0,8.0,38,0.00,,,0.00,0.000000,,2013-06-23 09:43:00,
2013-06-23 02:54:00,68.0,41.0,-100.00,ENE,68,5.0,8.0,38,0.00,,,0.00,0.000000,,2013-06-23 09:54:00,
2013-06-23 03:02:00,68.0,41.0,-100.00,ENE,68,5.0,8.0,38,0.00,,,0.00,0.000000,,2013-06-23 10:02:00,
2013-06-23 03:11:00,68.0,41.0,-100.00,ENE,68,5.0,8.0,38,0.00,,,0.00,0.000000,,2013-06-23 10:11:00,
2013-06-23 03:43:00,66.0,42.0,-100.00,NE,45,2.0,6.0,41,0.00,,,0.00,0.000000,,2013-06-23 10:43:00,
2013-06-23 03:53:00,66.0,42.0,-100.00,NE,45,2.0,6.0,41,0.00,,,0.00,0.000000,,2013-06-23 10:53:00,
2013-06-23 04:01:00,66.0,42.0,-100.00,NE,45,2.0,6.0,41,0.00,,,0.00,0.000000,,2013-06-23 11:01:00,
2013-06-23 04:11:00,66.0,42.0,-100.00,NE,45,2.0,6.0,41,0.00,,,0.00,0.000000,,2013-06-23 11:11:00,
2013-06-23 04:33:00,65.0,41.0,-100.00,NE,44,4.0,5.0,41,0.00,,,0.00,0.000000,,2013-06-23 11:33:00,
2013-06-23 04:43:00,65.0,41.0,-100.00,NE,44,4.0,5.0,41,0.00,,,0.00,0.000000,,2013-06-23 11:43:00,
2013-06-23 04:53:00,65.0,41.0,-100.00,NE,44,4.0,5.0,41,0.00,,,0.00,0.000000,,2013-06-23 11:53:00,
2013-06-23 05:01:00,65.0,41.0,-100.00,NE,44,4.0,5.0,41,0.00,,,0.00,0.000000,,2013-06-23 12:01:00,
2013-06-23 05:11:00,65.0,41.0,-100.00,NE,44,4.0,5.0,41,0.00,,,0.00,0.000000,,2013-06-23 12:11:00,
2013-06-23 05:43:00,64.0,41.0,-100.00,NE,37,3.0,5.0,43,0.00,,,0.00,0.000000,,2013-06-23 12:43:00,
2013-06-23 05:53:00,64.0,41.0,-100.00,NE,37,3.0,5.0,43,0.00,,,0.00,0.000000,,2013-06-23 12:53:00,
2013-06-23 06:01:00,64.0,41.0,-100.00,NE,37,3.0,5.0,43,0.00,,,0.00,0.000000,,2013-06-23 13:01:00,
2013-06-23 06:11:00,64.0,41.0,-100.00,NE,37,3.0,5.0,43,0.00,,,0.00,0.000000,,2013-06-23 13:11:00,
2013-06-23 06:43:00,63.0,41.0,-100.00,NE,43,2.0,7.0,45,0.00,,,0.00,5.000000,,2013-06-23 13:43:00,
2013-06-23 06:54:00,63.0,41.0,-100.00,NE,43,2.0,7.0,45,0.00,,,0.00,5.000000,,2013-06-23 13:54:00,
2013-06-23 07:04:00,63.0,41.0,-100.00,NE,43,2.0,7.0,45,0.00,,,0.00,5.000000,,2013-06-23 14:04:00,
2013-06-23 07:11:00,63.0,41.0,-100.00,NE,43,2.0,7.0,45,0.00,,,0.00,5.000000,,2013-06-23 14:11:00,
2013-06-23 07:44:00,71.0,44.0,-100.00,ENE,62,4.0,7.0,38,0.00,,,0.00,126.000000,,2013-06-23 14:44:00,
2013-06-23 07:52:00,71.0,44.0,-100.00,ENE,62,4.0,7.0,38,0.00,,,0.00,126.000000,,2013-06-23 14:52:00,
2013-06-23 08:05:00,71.0,44.0,-100.00,ENE,62,4.0,7.0,38,0.00,,,0.00,126.000000,,2013-06-23 15:05:00,
2013-06-23 08:11:00,71.0,44.0,-100.00,ENE,62,4.0,7.0,38,0.00,,,0.00,126.000000,,2013-06-23 15:11:00,
2013-06-23 08:43:00,78.0,43.0,-100.00,WSW,255,4.0,6.0,29,0.00,,,0.00,322.000000,,2013-06-23 15:43:00,
2013-06-23 08:52:00,78.0,43.0,-100.00,WSW,255,4.0,6.0,29,0.00,,,0.00,322.000000,,2013-06-23 15:52:00,
2013-06-23 09:05:00,78.0,43.0,-100.00,WSW,255,4.0,6.0,29,0.00,,,0.00,322.000000,,2013-06-23 16:05:00,
2013-06-23 09:11:00,78.0,43.0,-100.00,WSW,255,4.0,6.0,29,0.00,,,0.00,322.000000,,2013-06-23 16:11:00,
2013-06-23 09:36:00,80.0,42.0,-100.00,WSW,247,7.0,11.0,26,0.00,,,-99.99,520.000000,,2013-06-23 16:36:00,
2013-06-23 09:43:00,80.0,42.0,-100.00,WSW,247,7.0,11.0,26,0.00,,,-99.99,520.000000,,2013-06-23 16:43:00,
2013-06-23 09:53:00,80.0,42.0,-100.00,WSW,247,7.0,11.0,26,0.00,,,-99.99,520.000000,,2013-06-23 16:53:00,
2013-06-23 10:03:00,80.0,42.0,-100.00,WSW,247,7.0,11.0,26,0.00,,,-99.99,520.000000,,2013-06-23 17:03:00,
2013-06-23 10:11:00,80.0,42.0,-100.00,WSW,247,7.0,11.0,26,0.00,,,-99.99,520.000000,,2013-06-23 17:11:00,
2013-06-23 10:34:00,82.0,41.0,-100.00,WSW,247,5.0,12.0,23,0.00,,,0.00,666.000000,,2013-06-23 17:34:00,
2013-06-23 10:43:00,82.0,41.0,-100.00,WSW,247,5.0,12.0,23,0.00,,,0.00,666.000000,,2013-06-23 17:43:00,
2013-06-23 10:53:00,82.0,41.0,-100.00,WSW,247,5.0,12.0,23,0.00,,,0.00,666.000000,,2013-06-23 17:53:00,
2013-06-23 11:01:00,82.0,41.0,-100.00,WSW,247,5.0,12.0,23,0.00,,,0.00,666.000000,,2013-06-23 18:01:00,
2013-06-23 11:11:00,82.0,41.0,-100.00,WSW,247,5.0,12.0,23,0.00,,,0.00,666.000000,,2013-06-23 18:11:00,
2013-06-23 11:34:00,84.0,42.0,-100.00,WNW,303,5.0,11.0,23,0.00,,,0.00,783.000000,,2013-06-23 18:34:00,
2013-06-23 11:43:00,84.0,42.0,-100.00,WNW,303,5.0,11.0,23,0.00,,,0.00,783.000000,,2013-06-23 18:43:00,
2013-06-23 11:53:00,84.0,42.0,-100.00,WNW,303,5.0,11.0,23,0.00,,,0.00,783.000000,,2013-06-23 18:53:00,
2013-06-23 12:01:00,84.0,42.0,-100.00,WNW,303,5.0,11.0,23,0.00,,,0.00,783.000000,,2013-06-23 19:01:00,
2013-06-23 12:11:00,84.0,42.0,-100.00,WNW,303,5.0,11.0,23,0.00,,,0.00,783.000000,,2013-06-23 19:11:00,
2013-06-23 12:43:00,83.0,45.0,-100.00,WSW,254,6.0,12.0,26,0.00,,,0.00,689.000000,,2013-06-23 19:43:00,
2013-06-23 12:53:00,83.0,45.0,-100.00,WSW,254,6.0,12.0,26,0.00,,,0.00,689.000000,,2013-06-23 19:53:00,
2013-06-23 13:01:00,83.0,45.0,-100.00,WSW,254,6.0,12.0,26,0.00,,,0.00,689.000000,,2013-06-23 20:01:00,
2013-06-23 13:11:00,83.0,45.0,-100.00,WSW,254,6.0,12.0,26,0.00,,,0.00,689.000000,,2013-06-23 20:11:00,
2013-06-23 13:42:00,84.0,42.0,-100.00,WNW,296,6.0,12.0,23,0.00,,,0.00,738.000000,,2013-06-23 20:42:00,
2013-06-23 13:53:00,84.0,42.0,-100.00,WNW,296,6.0,12.0,23,0.00,,,0.00,738.000000,,2013-06-23 20:53:00,
2013-06-23 14:01:00,84.0,42.0,-100.00,WNW,296,6.0,12.0,23,0.00,,,0.00,738.000000,,2013-06-23 21:01:00,
2013-06-23 14:11:00,84.0,42.0,-100.00,WNW,296,6.0,12.0,23,0.00,,,0.00,738.000000,,2013-06-23 21:11:00,
2013-06-23 14:44:00,83.0,45.0,-100.00,West,280,5.0,13.0,26,0.00,,,0.00,662.000000,,2013-06-23 21:44:00,
2013-06-23 14:52:00,83.0,45.0,-100.00,West,280,5.0,13.0,26,0.00,,,0.00,662.000000,,2013-06-23 21:52:00,
2013-06-23 15:01:00,83.0,45.0,-100.00,West,280,5.0,13.0,26,0.00,,,0.00,662.000000,,2013-06-23 22:01:00,
2013-06-23 15:11:00,83.0,45.0,-100.00,West,280,5.0,13.0,26,0.00,,,0.00,662.000000,,2013-06-23 22:11:00,
2013-06-23 15:32:00,82.0,46.0,-100.00,WSW,246,7.0,13.0,28,0.00,,,0.00,525.000000,,2013-06-23 22:32:00,
2013-06-23 15:43:00,82.0,46.0,-100.00,WSW,246,7.0,13.0,28,0.00,,,0.00,525.000000,,2013-06-23 22:43:00,
2013-06-23 15:53:00,82.0,46.0,-100.00,WSW,246,7.0,13.0,28,0.00,,,0.00,525.000000,,2013-06-23 22:53:00,
2013-06-23 16:01:00,82.0,46.0,-100.00,WSW,246,7.0,13.0,28,0.00,,,0.00,525.000000,,2013-06-23 23:01:00,
2013-06-23 16:11:00,82.0,46.0,-100.00,WSW,246,7.0,13.0,28,0.00,,,0.00,525.000000,,2013-06-23 23:11:00,
2013-06-23 16:44:00,84.0,49.0,-100.00,WNW,302,5.0,14.0,30,0.00,,,0.00,493.000000,,2013-06-23 23:44:00,
2013-06-23 16:52:00,84.0,49.0,-100.00,WNW,302,5.0,14.0,30,0.00,,,0.00,493.000000,,2013-06-23 23:52:00,
2013-06-23 17:01:00,84.0,49.0,-100.00,WNW,302,5.0,14.0,30,0.00,,,0.00,493.000000,,2013-06-24 00:01:00,
2013-06-23 17:11:00,84.0,49.0,-100.00,WNW,302,5.0,14.0,30,0.00,,,0.00,493.000000,,2013-06-24 00:11:00,
2013-06-23 17:42:00,84.0,47.0,-100.00,WSW,255,7.0,13.0,28,0.00,,,-99.99,423.000000,,2013-06-24 00:42:00,
2013-06-23 17:52:00,84.0,47.0,-100.00,WSW,255,7.0,13.0,28,0.00,,,-99.99,423.000000,,2013-06-24 00:52:00,
2013-06-23 18:01:00,84.0,47.0,-100.00,WSW,255,7.0,13.0,28,0.00,,,-99.99,423.000000,,2013-06-24 01:01:00,
2013-06-23 18:11:00,84.0,47.0,-100.00,WSW,255,7.0,13.0,28,0.00,,,-99.99,423.000000,,2013-06-24 01:11:00,
2013-06-23 18:32:00,82.0,47.0,-100.00,West,268,5.0,12.0,30,0.00,,,0.00,405.000000,,2013-06-24 01:32:00,
2013-06-23 18:42:00,82.0,47.0,-100.00,West,268,5.0,12.0,30,0.00,,,0.00,405.000000,,2013-06-24 01:42:00,
2013-06-23 18:53:00,82.0,47.0,-100.00,West,268,5.0,12.0,30,0.00,,,0.00,405.000000,,2013-06-24 01:53:00,
2013-06-23 19:01:00,82.0,47.0,-100.00,West,268,5.0,12.0,30,0.00,,,0.00,405.000000,,2013-06-24 02:01:00,
2013-06-23 19:11:00,82.0,47.0,-100.00,West,268,5.0,12.0,30,0.00,,,0.00,405.000000,,2013-06-24 02:11:00,
2013-06-23 19:33:00,78.0,47.0,-100.00,WSW,250,4.0,14.0,33,0.00,,,0.00,151.000000,,2013-06-24 02:33:00,
2013-06-23 19:42:00,78.0,47.0,-100.00,WSW,250,4.0,14.0,33,0.00,,,0.00,151.000000,,2013-06-24 02:42:00,
2013-06-23 19:53:00,78.0,47.0,-100.00,WSW,250,4.0,14.0,33,0.00,,,0.00,151.000000,,2013-06-24 02:53:00,
2013-06-23 20:01:00,78.0,47.0,-100.00,WSW,250,4.0,14.0,33,0.00,,,0.00,151.000000,,2013-06-24 03:01:00,
2013-06-23 20:11:00,78.0,47.0,-100.00,WSW,250,4.0,14.0,33,0.00,,,0.00,151.000000,,2013-06-24 03:11:00,
2013-06-23 20:43:00,73.0,45.0,-100.00,SSW,192,3.0,10.0,37,0.00,,,0.00,19.000000,,2013-06-24 03:43:00,
2013-06-23 20:53:00,73.0,45.0,-100.00,SSW,192,3.0,10.0,37,0.00,,,0.00,19.000000,,2013-06-24 03:53:00,
2013-06-23 21:01:00,73.0,45.0,-100.00,SSW,192,3.0,10.0,37,0.00,,,0.00,19.000000,,2013-06-24 04:01:00,
2013-06-23 21:11:00,73.0,45.0,-100.00,SSW,192,3.0,10.0,37,0.00,,,0.00,19.000000,,2013-06-24 04:11:00,
2013-06-23 21:33:00,70.0,46.0,-100.00,NNE,24,0.0,4.0,43,0.00,,,0.00,0.000000,,2013-06-24 04:33:00,
2013-06-23 21:43:00,70.0,46.0,-100.00,NNE,24,0.0,4.0,43,0.00,,,0.00,0.000000,,2013-06-24 04:43:00,
2013-06-23 21:53:00,70.0,46.0,-100.00,NNE,24,0.0,4.0,43,0.00,,,0.00,0.000000,,2013-06-24 04:53:00,
2013-06-23 22:02:00,70.0,46.0,-100.00,NNE,24,0.0,4.0,43,0.00,,,0.00,0.000000,,2013-06-24 05:02:00,
2013-06-23 22:12:00,70.0,46.0,-100.00,NNE,24,0.0,4.0,43,0.00,,,0.00,0.000000,,2013-06-24 05:12:00,
2013-06-23 22:46:00,66.0,46.0,-100.00,NNE,33,3.0,5.0,48,0.00,,,0.00,0.000000,,2013-06-24 05:46:00,
2013-06-23 23:12:00,66.0,46.0,-100.00,NNE,33,3.0,5.0,48,0.00,,,0.00,0.000000,,2013-06-24 06:12:00,
2013-06-23 23:46:00,65.0,45.0,-100.00,NNE,26,3.0,4.0,48,0.00,,,0.00,0.000000,,2013-06-24 06:46:00,
2013-06-23 23:55:00,65.0,45.0,-100.00,NNE,26,3.0,4.0,48,0.00,,,0.00,0.000000,,2013-06-24 06:55:00,